sensor_id;sensor_type;location;lat;lon;timestamp;temperature;humidity
79055;DHT22;68452;47.186;-1.528;2023-04-24T00:00:06;12.30;60.30
79055;DHT22;68452;47.186;-1.528;2023-04-24T00:02:32;12.30;60.40
79055;DHT22;68452;47.186;-1.528;2023-04-24T00:04:59;12.30;60.40
79055;DHT22;68452;47.186;-1.528;2023-04-24T00:07:27;12.30;60.40
79055;DHT22;68452;47.186;-1.528;2023-04-24T00:09:53;12.40;60.30
79055;DHT22;68452;47.186;-1.528;2023-04-24T00:12:20;12.30;60.50
79055;DHT22;68452;47.186;-1.528;2023-04-24T00:14:46;12.40;61.30
79055;DHT22;68452;47.186;-1.528;2023-04-24T00:17:12;12.40;60.70
79055;DHT22;68452;47.186;-1.528;2023-04-24T00:19:37;12.40;60.70
79055;DHT22;68452;47.186;-1.528;2023-04-24T00:22:03;12.40;60.60
79055;DHT22;68452;47.186;-1.528;2023-04-24T00:24:29;12.40;60.20
79055;DHT22;68452;47.186;-1.528;2023-04-24T00:26:55;12.20;60.50
79055;DHT22;68452;47.186;-1.528;2023-04-24T00:29:21;12.30;60.70
79055;DHT22;68452;47.186;-1.528;2023-04-24T00:31:48;12.30;60.60
79055;DHT22;68452;47.186;-1.528;2023-04-24T00:34:13;12.30;60.50
79055;DHT22;68452;47.186;-1.528;2023-04-24T00:36:39;12.30;60.60
79055;DHT22;68452;47.186;-1.528;2023-04-24T00:39:06;12.30;60.80
79055;DHT22;68452;47.186;-1.528;2023-04-24T00:41:34;12.40;60.70
79055;DHT22;68452;47.186;-1.528;2023-04-24T00:44:00;12.40;61.00
79055;DHT22;68452;47.186;-1.528;2023-04-24T00:46:26;12.40;61.00
79055;DHT22;68452;47.186;-1.528;2023-04-24T00:48:52;12.40;60.90
79055;DHT22;68452;47.186;-1.528;2023-04-24T00:51:18;12.30;61.00
79055;DHT22;68452;47.186;-1.528;2023-04-24T00:53:45;12.30;61.30
79055;DHT22;68452;47.186;-1.528;2023-04-24T00:56:10;12.30;61.70
79055;DHT22;68452;47.186;-1.528;2023-04-24T00:58:36;12.20;62.10
79055;DHT22;68452;47.186;-1.528;2023-04-24T01:01:03;12.20;62.30
79055;DHT22;68452;47.186;-1.528;2023-04-24T01:03:33;12.00;62.60
79055;DHT22;68452;47.186;-1.528;2023-04-24T01:05:59;12.00;63.10
79055;DHT22;68452;47.186;-1.528;2023-04-24T01:08:26;11.90;63.20
79055;DHT22;68452;47.186;-1.528;2023-04-24T01:10:54;11.80;63.50
79055;DHT22;68452;47.186;-1.528;2023-04-24T01:13:20;11.80;63.80
79055;DHT22;68452;47.186;-1.528;2023-04-24T01:15:47;11.70;63.90
79055;DHT22;68452;47.186;-1.528;2023-04-24T01:18:13;11.70;64.00
79055;DHT22;68452;47.186;-1.528;2023-04-24T01:20:42;11.60;64.30
79055;DHT22;68452;47.186;-1.528;2023-04-24T01:23:10;11.60;64.30
79055;DHT22;68452;47.186;-1.528;2023-04-24T01:25:36;11.50;64.40
79055;DHT22;68452;47.186;-1.528;2023-04-24T01:28:03;11.50;64.70
79055;DHT22;68452;47.186;-1.528;2023-04-24T01:30:29;11.40;64.80
79055;DHT22;68452;47.186;-1.528;2023-04-24T01:32:55;11.50;64.90
79055;DHT22;68452;47.186;-1.528;2023-04-24T01:35:21;11.40;65.10
79055;DHT22;68452;47.186;-1.528;2023-04-24T01:37:47;11.40;65.30
79055;DHT22;68452;47.186;-1.528;2023-04-24T01:40:13;11.30;65.20
79055;DHT22;68452;47.186;-1.528;2023-04-24T01:42:41;11.30;65.40
79055;DHT22;68452;47.186;-1.528;2023-04-24T01:45:10;11.30;65.60
79055;DHT22;68452;47.186;-1.528;2023-04-24T01:47:36;11.20;65.80
79055;DHT22;68452;47.186;-1.528;2023-04-24T01:50:03;11.10;65.80
79055;DHT22;68452;47.186;-1.528;2023-04-24T01:52:28;11.20;66.00
79055;DHT22;68452;47.186;-1.528;2023-04-24T01:54:59;11.10;65.70
79055;DHT22;68452;47.186;-1.528;2023-04-24T01:57:26;11.10;66.00
79055;DHT22;68452;47.186;-1.528;2023-04-24T01:59:52;11.00;65.80
79055;DHT22;68452;47.186;-1.528;2023-04-24T02:02:18;10.90;65.80
79055;DHT22;68452;47.186;-1.528;2023-04-24T02:04:44;11.00;66.00
79055;DHT22;68452;47.186;-1.528;2023-04-24T02:07:09;10.90;66.20
79055;DHT22;68452;47.186;-1.528;2023-04-24T02:09:35;10.90;66.20
79055;DHT22;68452;47.186;-1.528;2023-04-24T02:12:01;10.90;66.20
79055;DHT22;68452;47.186;-1.528;2023-04-24T02:14:27;10.80;66.10
79055;DHT22;68452;47.186;-1.528;2023-04-24T02:16:53;10.80;66.20
79055;DHT22;68452;47.186;-1.528;2023-04-24T02:19:19;10.70;66.40
79055;DHT22;68452;47.186;-1.528;2023-04-24T02:21:44;10.70;66.70
79055;DHT22;68452;47.186;-1.528;2023-04-24T02:24:10;10.70;66.70
79055;DHT22;68452;47.186;-1.528;2023-04-24T02:26:36;10.60;66.60
79055;DHT22;68452;47.186;-1.528;2023-04-24T02:29:02;10.60;66.50
79055;DHT22;68452;47.186;-1.528;2023-04-24T02:31:28;10.60;66.60
79055;DHT22;68452;47.186;-1.528;2023-04-24T02:33:54;10.60;66.70
79055;DHT22;68452;47.186;-1.528;2023-04-24T02:36:20;10.50;66.70
79055;DHT22;68452;47.186;-1.528;2023-04-24T02:38:46;10.50;66.80
79055;DHT22;68452;47.186;-1.528;2023-04-24T02:41:12;10.50;67.00
79055;DHT22;68452;47.186;-1.528;2023-04-24T02:43:38;10.50;66.80
79055;DHT22;68452;47.186;-1.528;2023-04-24T02:46:03;10.50;66.90
79055;DHT22;68452;47.186;-1.528;2023-04-24T02:48:30;10.50;67.20
79055;DHT22;68452;47.186;-1.528;2023-04-24T02:50:55;10.50;67.10
79055;DHT22;68452;47.186;-1.528;2023-04-24T02:53:23;10.60;67.30
79055;DHT22;68452;47.186;-1.528;2023-04-24T02:55:49;10.60;67.40
79055;DHT22;68452;47.186;-1.528;2023-04-24T02:58:14;10.60;67.60
79055;DHT22;68452;47.186;-1.528;2023-04-24T03:00:41;10.60;67.50
79055;DHT22;68452;47.186;-1.528;2023-04-24T03:03:07;10.70;67.50
79055;DHT22;68452;47.186;-1.528;2023-04-24T03:05:32;10.70;67.40
79055;DHT22;68452;47.186;-1.528;2023-04-24T03:07:58;10.80;67.10
79055;DHT22;68452;47.186;-1.528;2023-04-24T03:10:24;10.90;66.80
79055;DHT22;68452;47.186;-1.528;2023-04-24T03:12:51;10.90;66.80
79055;DHT22;68452;47.186;-1.528;2023-04-24T03:15:16;10.80;66.70
79055;DHT22;68452;47.186;-1.528;2023-04-24T03:17:42;10.80;66.40
79055;DHT22;68452;47.186;-1.528;2023-04-24T03:20:08;10.80;66.30
79055;DHT22;68452;47.186;-1.528;2023-04-24T03:22:35;10.80;66.40
79055;DHT22;68452;47.186;-1.528;2023-04-24T03:25:01;10.80;66.30
79055;DHT22;68452;47.186;-1.528;2023-04-24T03:27:27;10.70;66.40
79055;DHT22;68452;47.186;-1.528;2023-04-24T03:29:53;10.70;66.20
79055;DHT22;68452;47.186;-1.528;2023-04-24T03:32:21;10.60;66.00
79055;DHT22;68452;47.186;-1.528;2023-04-24T03:34:50;10.60;65.90
79055;DHT22;68452;47.186;-1.528;2023-04-24T03:37:16;10.60;65.90
79055;DHT22;68452;47.186;-1.528;2023-04-24T03:39:42;10.60;66.00
79055;DHT22;68452;47.186;-1.528;2023-04-24T03:42:08;10.50;66.00
79055;DHT22;68452;47.186;-1.528;2023-04-24T03:44:35;10.40;66.00
79055;DHT22;68452;47.186;-1.528;2023-04-24T03:47:00;10.40;65.90
79055;DHT22;68452;47.186;-1.528;2023-04-24T03:49:26;10.40;65.90
79055;DHT22;68452;47.186;-1.528;2023-04-24T03:51:52;10.40;66.20
79055;DHT22;68452;47.186;-1.528;2023-04-24T03:54:19;10.40;66.30
79055;DHT22;68452;47.186;-1.528;2023-04-24T03:56:45;10.40;66.20
79055;DHT22;68452;47.186;-1.528;2023-04-24T03:59:10;10.50;66.20
79055;DHT22;68452;47.186;-1.528;2023-04-24T04:01:37;10.40;66.10
79055;DHT22;68452;47.186;-1.528;2023-04-24T04:04:03;10.50;66.10
79055;DHT22;68452;47.186;-1.528;2023-04-24T04:06:29;10.50;65.90
79055;DHT22;68452;47.186;-1.528;2023-04-24T04:08:57;10.40;65.90
79055;DHT22;68452;47.186;-1.528;2023-04-24T04:11:22;10.40;65.90
79055;DHT22;68452;47.186;-1.528;2023-04-24T04:13:48;10.30;66.00
79055;DHT22;68452;47.186;-1.528;2023-04-24T04:16:14;10.20;66.10
79055;DHT22;68452;47.186;-1.528;2023-04-24T04:18:42;10.20;66.20
79055;DHT22;68452;47.186;-1.528;2023-04-24T04:21:08;10.20;66.40
79055;DHT22;68452;47.186;-1.528;2023-04-24T04:23:34;10.20;66.30
79055;DHT22;68452;47.186;-1.528;2023-04-24T04:26:00;10.10;66.30
79055;DHT22;68452;47.186;-1.528;2023-04-24T04:28:27;10.20;66.50
79055;DHT22;68452;47.186;-1.528;2023-04-24T04:30:53;10.10;66.40
79055;DHT22;68452;47.186;-1.528;2023-04-24T04:33:23;10.10;66.40
79055;DHT22;68452;47.186;-1.528;2023-04-24T04:35:50;10.10;66.60
79055;DHT22;68452;47.186;-1.528;2023-04-24T04:38:22;10.10;66.70
79055;DHT22;68452;47.186;-1.528;2023-04-24T04:40:48;10.20;66.60
79055;DHT22;68452;47.186;-1.528;2023-04-24T04:43:14;10.20;66.80
79055;DHT22;68452;47.186;-1.528;2023-04-24T04:45:41;10.20;66.90
79055;DHT22;68452;47.186;-1.528;2023-04-24T04:48:09;10.20;66.80
79055;DHT22;68452;47.186;-1.528;2023-04-24T04:50:37;10.20;66.60
79055;DHT22;68452;47.186;-1.528;2023-04-24T04:53:03;10.30;66.60
79055;DHT22;68452;47.186;-1.528;2023-04-24T04:55:29;10.30;66.80
79055;DHT22;68452;47.186;-1.528;2023-04-24T04:57:55;10.30;66.60
79055;DHT22;68452;47.186;-1.528;2023-04-24T05:00:22;10.40;66.60
79055;DHT22;68452;47.186;-1.528;2023-04-24T05:02:51;10.40;66.40
79055;DHT22;68452;47.186;-1.528;2023-04-24T05:05:17;10.40;66.70
79055;DHT22;68452;47.186;-1.528;2023-04-24T05:07:43;10.50;66.30
79055;DHT22;68452;47.186;-1.528;2023-04-24T05:10:09;10.60;66.00
79055;DHT22;68452;47.186;-1.528;2023-04-24T05:12:36;10.60;66.20
79055;DHT22;68452;47.186;-1.528;2023-04-24T05:15:02;10.70;66.10
79055;DHT22;68452;47.186;-1.528;2023-04-24T05:17:28;10.80;66.00
79055;DHT22;68452;47.186;-1.528;2023-04-24T05:19:54;10.80;66.00
79055;DHT22;68452;47.186;-1.528;2023-04-24T05:22:20;10.80;66.10
79055;DHT22;68452;47.186;-1.528;2023-04-24T05:24:47;10.80;65.70
79055;DHT22;68452;47.186;-1.528;2023-04-24T05:27:13;10.90;66.00
79055;DHT22;68452;47.186;-1.528;2023-04-24T05:29:39;10.80;66.00
79055;DHT22;68452;47.186;-1.528;2023-04-24T05:32:05;10.90;66.00
79055;DHT22;68452;47.186;-1.528;2023-04-24T05:34:31;10.80;66.20
79055;DHT22;68452;47.186;-1.528;2023-04-24T05:36:57;10.70;66.10
79055;DHT22;68452;47.186;-1.528;2023-04-24T05:39:23;10.80;66.40
79055;DHT22;68452;47.186;-1.528;2023-04-24T05:41:51;10.70;66.60
79055;DHT22;68452;47.186;-1.528;2023-04-24T05:44:17;10.70;66.80
79055;DHT22;68452;47.186;-1.528;2023-04-24T05:46:43;10.70;67.00
79055;DHT22;68452;47.186;-1.528;2023-04-24T05:49:08;10.70;67.30
79055;DHT22;68452;47.186;-1.528;2023-04-24T05:51:34;10.60;67.30
79055;DHT22;68452;47.186;-1.528;2023-04-24T05:54:00;10.70;67.40
79055;DHT22;68452;47.186;-1.528;2023-04-24T05:56:28;10.60;67.20
79055;DHT22;68452;47.186;-1.528;2023-04-24T05:58:54;10.70;67.30
79055;DHT22;68452;47.186;-1.528;2023-04-24T06:01:21;10.70;67.40
79055;DHT22;68452;47.186;-1.528;2023-04-24T06:03:46;10.70;67.50
79055;DHT22;68452;47.186;-1.528;2023-04-24T06:06:12;10.80;67.30
79055;DHT22;68452;47.186;-1.528;2023-04-24T06:08:39;10.80;67.30
79055;DHT22;68452;47.186;-1.528;2023-04-24T06:11:04;11.00;67.30
79055;DHT22;68452;47.186;-1.528;2023-04-24T06:13:30;11.00;67.00
79055;DHT22;68452;47.186;-1.528;2023-04-24T06:15:56;11.10;67.00
79055;DHT22;68452;47.186;-1.528;2023-04-24T06:18:22;11.20;66.40
79055;DHT22;68452;47.186;-1.528;2023-04-24T06:20:47;11.30;66.50
79055;DHT22;68452;47.186;-1.528;2023-04-24T06:23:13;11.30;66.20
79055;DHT22;68452;47.186;-1.528;2023-04-24T06:25:39;11.30;66.70
79055;DHT22;68452;47.186;-1.528;2023-04-24T06:28:05;11.50;66.50
79055;DHT22;68452;47.186;-1.528;2023-04-24T06:30:31;11.60;65.80
79055;DHT22;68452;47.186;-1.528;2023-04-24T06:32:57;11.60;65.20
79055;DHT22;68452;47.186;-1.528;2023-04-24T06:35:23;11.60;64.90
79055;DHT22;68452;47.186;-1.528;2023-04-24T06:37:49;11.60;64.80
79055;DHT22;68452;47.186;-1.528;2023-04-24T06:40:15;11.70;64.60
79055;DHT22;68452;47.186;-1.528;2023-04-24T06:42:40;11.70;64.50
79055;DHT22;68452;47.186;-1.528;2023-04-24T06:45:07;11.80;64.30
79055;DHT22;68452;47.186;-1.528;2023-04-24T06:47:33;11.80;64.50
79055;DHT22;68452;47.186;-1.528;2023-04-24T06:49:59;11.90;64.40
79055;DHT22;68452;47.186;-1.528;2023-04-24T06:52:25;12.00;64.10
79055;DHT22;68452;47.186;-1.528;2023-04-24T06:54:51;12.00;63.60
79055;DHT22;68452;47.186;-1.528;2023-04-24T06:57:18;12.10;63.80
79055;DHT22;68452;47.186;-1.528;2023-04-24T06:59:43;12.10;64.10
79055;DHT22;68452;47.186;-1.528;2023-04-24T07:02:09;12.20;63.50
79055;DHT22;68452;47.186;-1.528;2023-04-24T07:04:35;12.20;63.90
79055;DHT22;68452;47.186;-1.528;2023-04-24T07:07:02;12.20;63.50
79055;DHT22;68452;47.186;-1.528;2023-04-24T07:09:30;12.20;63.40
79055;DHT22;68452;47.186;-1.528;2023-04-24T07:11:56;12.30;63.60
79055;DHT22;68452;47.186;-1.528;2023-04-24T07:14:22;12.20;62.70
79055;DHT22;68452;47.186;-1.528;2023-04-24T07:16:48;12.30;63.10
79055;DHT22;68452;47.186;-1.528;2023-04-24T07:19:14;12.40;63.30
79055;DHT22;68452;47.186;-1.528;2023-04-24T07:21:40;12.50;64.10
79055;DHT22;68452;47.186;-1.528;2023-04-24T07:24:06;12.60;64.10
79055;DHT22;68452;47.186;-1.528;2023-04-24T07:26:37;12.70;63.40
79055;DHT22;68452;47.186;-1.528;2023-04-24T07:29:04;12.70;63.00
79055;DHT22;68452;47.186;-1.528;2023-04-24T07:31:30;12.70;63.30
79055;DHT22;68452;47.186;-1.528;2023-04-24T07:33:57;12.80;63.40
79055;DHT22;68452;47.186;-1.528;2023-04-24T07:36:24;12.90;63.40
79055;DHT22;68452;47.186;-1.528;2023-04-24T07:38:51;13.00;63.00
79055;DHT22;68452;47.186;-1.528;2023-04-24T07:41:18;13.00;62.90
79055;DHT22;68452;47.186;-1.528;2023-04-24T07:43:44;13.00;63.00
79055;DHT22;68452;47.186;-1.528;2023-04-24T07:46:11;13.00;62.90
79055;DHT22;68452;47.186;-1.528;2023-04-24T07:48:37;13.10;63.10
79055;DHT22;68452;47.186;-1.528;2023-04-24T07:51:03;13.30;62.80
79055;DHT22;68452;47.186;-1.528;2023-04-24T07:53:29;13.40;62.70
79055;DHT22;68452;47.186;-1.528;2023-04-24T07:55:56;13.50;62.90
79055;DHT22;68452;47.186;-1.528;2023-04-24T07:58:22;13.70;61.80
79055;DHT22;68452;47.186;-1.528;2023-04-24T08:00:47;13.70;62.00
79055;DHT22;68452;47.186;-1.528;2023-04-24T08:03:13;13.90;61.90
79055;DHT22;68452;47.186;-1.528;2023-04-24T08:05:41;13.90;61.10
79055;DHT22;68452;47.186;-1.528;2023-04-24T08:08:07;13.90;60.20
79055;DHT22;68452;47.186;-1.528;2023-04-24T08:10:33;13.90;59.90
79055;DHT22;68452;47.186;-1.528;2023-04-24T08:12:59;14.10;60.10
79055;DHT22;68452;47.186;-1.528;2023-04-24T08:15:27;14.10;59.30
79055;DHT22;68452;47.186;-1.528;2023-04-24T08:17:53;14.20;60.30
79055;DHT22;68452;47.186;-1.528;2023-04-24T08:20:19;14.30;59.80
79055;DHT22;68452;47.186;-1.528;2023-04-24T08:22:44;14.20;59.30
79055;DHT22;68452;47.186;-1.528;2023-04-24T08:25:12;14.10;59.80
79055;DHT22;68452;47.186;-1.528;2023-04-24T08:27:38;14.20;60.20
79055;DHT22;68452;47.186;-1.528;2023-04-24T08:30:05;14.10;58.00
79055;DHT22;68452;47.186;-1.528;2023-04-24T08:32:31;14.10;59.50
79055;DHT22;68452;47.186;-1.528;2023-04-24T08:34:58;14.10;57.70
79055;DHT22;68452;47.186;-1.528;2023-04-24T08:37:26;14.20;58.10
79055;DHT22;68452;47.186;-1.528;2023-04-24T08:39:52;14.20;57.60
79055;DHT22;68452;47.186;-1.528;2023-04-24T08:42:19;14.30;58.40
79055;DHT22;68452;47.186;-1.528;2023-04-24T08:44:47;14.40;57.40
79055;DHT22;68452;47.186;-1.528;2023-04-24T08:47:15;14.40;56.90
79055;DHT22;68452;47.186;-1.528;2023-04-24T08:49:41;14.50;56.60
79055;DHT22;68452;47.186;-1.528;2023-04-24T08:52:08;14.60;55.90
79055;DHT22;68452;47.186;-1.528;2023-04-24T08:54:35;14.50;55.90
79055;DHT22;68452;47.186;-1.528;2023-04-24T08:57:02;14.50;56.30
79055;DHT22;68452;47.186;-1.528;2023-04-24T08:59:30;14.50;55.60
79055;DHT22;68452;47.186;-1.528;2023-04-24T09:01:57;14.60;55.90
79055;DHT22;68452;47.186;-1.528;2023-04-24T09:04:24;14.60;55.30
79055;DHT22;68452;47.186;-1.528;2023-04-24T09:06:58;14.60;54.40
79055;DHT22;68452;47.186;-1.528;2023-04-24T09:09:25;14.60;54.10
79055;DHT22;68452;47.186;-1.528;2023-04-24T09:11:52;14.70;55.20
79055;DHT22;68452;47.186;-1.528;2023-04-24T09:14:20;14.70;55.20
79055;DHT22;68452;47.186;-1.528;2023-04-24T09:16:47;14.80;55.10
79055;DHT22;68452;47.186;-1.528;2023-04-24T09:19:13;14.80;54.00
79055;DHT22;68452;47.186;-1.528;2023-04-24T09:21:40;14.80;53.70
79055;DHT22;68452;47.186;-1.528;2023-04-24T09:24:18;14.80;53.60
79055;DHT22;68452;47.186;-1.528;2023-04-24T09:26:46;14.90;52.00
79055;DHT22;68452;47.186;-1.528;2023-04-24T09:29:16;14.90;51.40
79055;DHT22;68452;47.186;-1.528;2023-04-24T09:31:44;15.00;51.00
79055;DHT22;68452;47.186;-1.528;2023-04-24T09:34:12;15.10;50.50
79055;DHT22;68452;47.186;-1.528;2023-04-24T09:36:39;15.30;50.90
79055;DHT22;68452;47.186;-1.528;2023-04-24T09:39:12;15.40;50.40
79055;DHT22;68452;47.186;-1.528;2023-04-24T09:41:52;15.30;49.40
79055;DHT22;68452;47.186;-1.528;2023-04-24T09:44:19;15.30;51.10
79055;DHT22;68452;47.186;-1.528;2023-04-24T09:46:56;15.00;49.70
79055;DHT22;68452;47.186;-1.528;2023-04-24T09:49:25;14.80;51.20
79055;DHT22;68452;47.186;-1.528;2023-04-24T09:51:51;14.80;51.40
79055;DHT22;68452;47.186;-1.528;2023-04-24T09:54:21;14.80;52.10
79055;DHT22;68452;47.186;-1.528;2023-04-24T09:56:49;14.80;51.80
79055;DHT22;68452;47.186;-1.528;2023-04-24T09:59:17;14.80;51.80
79055;DHT22;68452;47.186;-1.528;2023-04-24T10:01:43;14.80;51.70
79055;DHT22;68452;47.186;-1.528;2023-04-24T10:04:18;14.90;51.70
79055;DHT22;68452;47.186;-1.528;2023-04-24T10:06:45;14.90;51.20
79055;DHT22;68452;47.186;-1.528;2023-04-24T10:09:11;14.90;51.60
79055;DHT22;68452;47.186;-1.528;2023-04-24T10:11:41;15.00;51.60
79055;DHT22;68452;47.186;-1.528;2023-04-24T10:14:10;15.10;50.90
79055;DHT22;68452;47.186;-1.528;2023-04-24T10:16:39;15.20;51.60
79055;DHT22;68452;47.186;-1.528;2023-04-24T10:19:06;15.30;51.00
79055;DHT22;68452;47.186;-1.528;2023-04-24T10:21:33;15.30;51.90
79055;DHT22;68452;47.186;-1.528;2023-04-24T10:24:00;15.20;50.30
79055;DHT22;68452;47.186;-1.528;2023-04-24T10:26:29;15.10;51.30
79055;DHT22;68452;47.186;-1.528;2023-04-24T10:28:57;15.00;50.90
79055;DHT22;68452;47.186;-1.528;2023-04-24T10:31:23;14.90;51.70
79055;DHT22;68452;47.186;-1.528;2023-04-24T10:33:50;14.80;52.40
79055;DHT22;68452;47.186;-1.528;2023-04-24T10:36:17;14.90;52.40
79055;DHT22;68452;47.186;-1.528;2023-04-24T10:38:45;14.90;53.00
79055;DHT22;68452;47.186;-1.528;2023-04-24T10:41:13;15.10;52.70
79055;DHT22;68452;47.186;-1.528;2023-04-24T10:43:45;15.20;52.70
79055;DHT22;68452;47.186;-1.528;2023-04-24T10:46:19;15.30;52.00
79055;DHT22;68452;47.186;-1.528;2023-04-24T10:48:56;15.50;52.80
79055;DHT22;68452;47.186;-1.528;2023-04-24T10:51:24;15.60;51.80
79055;DHT22;68452;47.186;-1.528;2023-04-24T10:53:51;15.60;52.00
79055;DHT22;68452;47.186;-1.528;2023-04-24T10:56:17;15.80;51.70
79055;DHT22;68452;47.186;-1.528;2023-04-24T10:58:51;16.00;49.60
79055;DHT22;68452;47.186;-1.528;2023-04-24T11:01:38;16.00;49.50
79055;DHT22;68452;47.186;-1.528;2023-04-24T11:04:03;16.10;49.30
79055;DHT22;68452;47.186;-1.528;2023-04-24T11:06:33;16.10;50.30
79055;DHT22;68452;47.186;-1.528;2023-04-24T11:09:11;16.40;49.30
79055;DHT22;68452;47.186;-1.528;2023-04-24T11:11:45;16.50;49.10
79055;DHT22;68452;47.186;-1.528;2023-04-24T11:14:14;16.50;49.30
79055;DHT22;68452;47.186;-1.528;2023-04-24T11:16:44;16.60;49.60
79055;DHT22;68452;47.186;-1.528;2023-04-24T11:19:20;16.80;48.60
79055;DHT22;68452;47.186;-1.528;2023-04-24T11:21:58;16.90;48.60
79055;DHT22;68452;47.186;-1.528;2023-04-24T11:29:59;17.00;48.40
79055;DHT22;68452;47.186;-1.528;2023-04-24T11:32:36;16.80;47.40
79055;DHT22;68452;47.186;-1.528;2023-04-24T11:35:13;16.70;48.70
79055;DHT22;68452;47.186;-1.528;2023-04-24T11:37:45;16.70;49.10
79055;DHT22;68452;47.186;-1.528;2023-04-24T11:40:13;16.60;49.20
79055;DHT22;68452;47.186;-1.528;2023-04-24T11:42:45;16.60;49.50
79055;DHT22;68452;47.186;-1.528;2023-04-24T11:45:16;16.50;49.80
79055;DHT22;68452;47.186;-1.528;2023-04-24T11:47:44;16.50;49.80
79055;DHT22;68452;47.186;-1.528;2023-04-24T11:50:15;16.40;49.10
79055;DHT22;68452;47.186;-1.528;2023-04-24T11:52:43;16.50;49.50
79055;DHT22;68452;47.186;-1.528;2023-04-24T11:57:48;16.80;49.50
79055;DHT22;68452;47.186;-1.528;2023-04-24T12:00:27;16.90;49.20
79055;DHT22;68452;47.186;-1.528;2023-04-24T12:03:04;17.20;49.30
79055;DHT22;68452;47.186;-1.528;2023-04-24T12:05:31;17.20;48.00
79055;DHT22;68452;47.186;-1.528;2023-04-24T12:07:57;17.20;47.50
79055;DHT22;68452;47.186;-1.528;2023-04-24T12:10:24;17.20;46.40
79055;DHT22;68452;47.186;-1.528;2023-04-24T12:12:51;17.20;46.10
79055;DHT22;68452;47.186;-1.528;2023-04-24T12:15:18;17.20;47.30
79055;DHT22;68452;47.186;-1.528;2023-04-24T12:17:44;17.40;47.90
79055;DHT22;68452;47.186;-1.528;2023-04-24T12:20:11;17.50;46.50
79055;DHT22;68452;47.186;-1.528;2023-04-24T12:22:54;17.90;47.30
79055;DHT22;68452;47.186;-1.528;2023-04-24T12:25:25;18.20;46.60
79055;DHT22;68452;47.186;-1.528;2023-04-24T12:30:35;18.40;45.70
79055;DHT22;68452;47.186;-1.528;2023-04-24T12:33:03;18.60;45.50
79055;DHT22;68452;47.186;-1.528;2023-04-24T12:35:31;18.60;45.40
79055;DHT22;68452;47.186;-1.528;2023-04-24T12:38:09;18.40;46.00
79055;DHT22;68452;47.186;-1.528;2023-04-24T12:40:35;18.40;46.10
79055;DHT22;68452;47.186;-1.528;2023-04-24T12:43:01;18.30;45.90
79055;DHT22;68452;47.186;-1.528;2023-04-24T12:45:27;18.20;45.50
79055;DHT22;68452;47.186;-1.528;2023-04-24T12:47:53;18.30;46.90
79055;DHT22;68452;47.186;-1.528;2023-04-24T12:50:19;18.20;46.70
79055;DHT22;68452;47.186;-1.528;2023-04-24T12:52:45;18.00;46.50
79055;DHT22;68452;47.186;-1.528;2023-04-24T12:55:11;17.80;46.70
79055;DHT22;68452;47.186;-1.528;2023-04-24T12:57:39;17.80;46.40
79055;DHT22;68452;47.186;-1.528;2023-04-24T13:00:07;17.80;46.80
79055;DHT22;68452;47.186;-1.528;2023-04-24T13:02:33;17.60;47.80
79055;DHT22;68452;47.186;-1.528;2023-04-24T13:05:00;17.60;48.20
79055;DHT22;68452;47.186;-1.528;2023-04-24T13:07:26;18.00;48.10
79055;DHT22;68452;47.186;-1.528;2023-04-24T13:09:53;18.10;47.50
79055;DHT22;68452;47.186;-1.528;2023-04-24T13:12:20;18.00;47.30
79055;DHT22;68452;47.186;-1.528;2023-04-24T13:14:46;18.30;46.30
79055;DHT22;68452;47.186;-1.528;2023-04-24T13:17:12;18.50;44.70
79055;DHT22;68452;47.186;-1.528;2023-04-24T13:19:40;18.60;44.30
79055;DHT22;68452;47.186;-1.528;2023-04-24T13:22:06;18.90;43.60
79055;DHT22;68452;47.186;-1.528;2023-04-24T13:24:33;18.90;43.90
79055;DHT22;68452;47.186;-1.528;2023-04-24T13:26:59;18.80;43.80
79055;DHT22;68452;47.186;-1.528;2023-04-24T13:29:26;18.60;44.80
79055;DHT22;68452;47.186;-1.528;2023-04-24T13:31:52;18.40;44.60
79055;DHT22;68452;47.186;-1.528;2023-04-24T13:34:25;18.40;45.00
79055;DHT22;68452;47.186;-1.528;2023-04-24T13:36:53;18.40;45.00
79055;DHT22;68452;47.186;-1.528;2023-04-24T13:39:19;18.70;44.30
79055;DHT22;68452;47.186;-1.528;2023-04-24T13:41:45;19.80;42.30
79055;DHT22;68452;47.186;-1.528;2023-04-24T13:44:17;20.70;40.60
79055;DHT22;68452;47.186;-1.528;2023-04-24T13:46:44;21.10;38.40
79055;DHT22;68452;47.186;-1.528;2023-04-24T13:49:11;21.00;37.50
79055;DHT22;68452;47.186;-1.528;2023-04-24T13:51:37;20.90;39.40
79055;DHT22;68452;47.186;-1.528;2023-04-24T13:54:03;20.50;39.90
79055;DHT22;68452;47.186;-1.528;2023-04-24T13:56:29;20.00;39.90
79055;DHT22;68452;47.186;-1.528;2023-04-24T13:58:56;19.80;40.20
79055;DHT22;68452;47.186;-1.528;2023-04-24T14:01:22;20.00;38.90
79055;DHT22;68452;47.186;-1.528;2023-04-24T14:03:52;20.60;38.20
79055;DHT22;68452;47.186;-1.528;2023-04-24T14:06:18;21.20;37.90
79055;DHT22;68452;47.186;-1.528;2023-04-24T14:08:44;21.70;38.40
79055;DHT22;68452;47.186;-1.528;2023-04-24T14:11:10;21.70;37.10
79055;DHT22;68452;47.186;-1.528;2023-04-24T14:13:40;21.70;37.00
79055;DHT22;68452;47.186;-1.528;2023-04-24T14:16:06;21.90;37.30
79055;DHT22;68452;47.186;-1.528;2023-04-24T14:18:32;22.30;37.70
79055;DHT22;68452;47.186;-1.528;2023-04-24T14:20:58;22.60;37.10
79055;DHT22;68452;47.186;-1.528;2023-04-24T14:23:24;21.70;38.30
79055;DHT22;68452;47.186;-1.528;2023-04-24T14:25:50;21.10;38.90
79055;DHT22;68452;47.186;-1.528;2023-04-24T14:28:21;20.90;39.60
79055;DHT22;68452;47.186;-1.528;2023-04-24T14:30:48;22.70;38.20
79055;DHT22;68452;47.186;-1.528;2023-04-24T14:33:14;22.50;37.20
79055;DHT22;68452;47.186;-1.528;2023-04-24T14:35:40;21.60;37.80
79055;DHT22;68452;47.186;-1.528;2023-04-24T14:38:07;20.50;38.30
79055;DHT22;68452;47.186;-1.528;2023-04-24T14:40:34;24.10;37.00
79055;DHT22;68452;47.186;-1.528;2023-04-24T14:43:00;27.30;31.40
79055;DHT22;68452;47.186;-1.528;2023-04-24T14:45:26;29.80;27.70
79055;DHT22;68452;47.186;-1.528;2023-04-24T14:47:52;30.50;26.90
79055;DHT22;68452;47.186;-1.528;2023-04-24T14:50:18;29.00;28.50
79055;DHT22;68452;47.186;-1.528;2023-04-24T14:52:44;29.00;28.60
79055;DHT22;68452;47.186;-1.528;2023-04-24T14:55:10;27.20;29.90
79055;DHT22;68452;47.186;-1.528;2023-04-24T14:57:36;26.20;30.40
79055;DHT22;68452;47.186;-1.528;2023-04-24T15:00:04;24.30;32.20
79055;DHT22;68452;47.186;-1.528;2023-04-24T15:02:32;24.60;32.40
79055;DHT22;68452;47.186;-1.528;2023-04-24T15:04:58;25.40;31.40
79055;DHT22;68452;47.186;-1.528;2023-04-24T15:07:25;25.40;31.70
79055;DHT22;68452;47.186;-1.528;2023-04-24T15:09:50;23.80;32.40
79055;DHT22;68452;47.186;-1.528;2023-04-24T15:12:16;22.40;35.20
79055;DHT22;68452;47.186;-1.528;2023-04-24T15:14:42;22.10;35.50
79055;DHT22;68452;47.186;-1.528;2023-04-24T15:17:08;21.80;36.90
79055;DHT22;68452;47.186;-1.528;2023-04-24T15:19:34;21.70;36.50
79055;DHT22;68452;47.186;-1.528;2023-04-24T15:22:00;21.30;35.60
79055;DHT22;68452;47.186;-1.528;2023-04-24T15:24:26;20.90;37.00